Terminal Aerodrome Forecast
Issued by NWS

Home | Current Version | Previous Version | Text Only | Print | Product List | Glossary Off
Versions: 1 2 3 4 5 6 7 8 9 10 11 12 13 14 15 16 17 18

000
FTUS43 KTOP 251600 AAC
TAFMHK
TAF AMD
KMHK 251629Z 2516/2612 05005KT 5SM BR SCT007
     FM251800 03012KT P6SM SCT020 OVC120
     FM252100 02014G23KT P6SM -RA SCT025 OVC050
     FM260400 35007KT P6SM SCT050 BKN100=

USA.gov is the U.S. government's official web portal to all federal, state and local government web resources and services.